PWSweather.com
Personal Weather Stations
Station Observations
UWIDEPER1
Brown County, Depere, WI 54115

Brown CountyDepere, WI 54115

Lat: 44.44, Lon: -88.05

Elevation: 610

Station Type: Acurite 5in1

Latest ConditionsUpdated 6:20:01 AM CDT Friday, Jul 19, 2019
Currently Today's Max Today's Min Today's Average
Temperature 75.2°F24.0°C 78.4°F25.8°C 75.2°F24.0°C 77.0°F25.0°C
Dew Point 74.0°F23.3°C 76.2°F24.6°C 73.4°F23.0°C 74.9°F23.8°C
Winds 1.2 mph SSW1.9 kmh SSW 6.9 mph -11.1 kmh - - 1.2 mph 1.9 kmh
Wind Gusts 2.3 mph3.7 kmh 11.5 mph18.5 kmh - -
Humidity 96% 96% 91% 93%
Pressure 29.73 in1006.8 mb 29.75 in1007.5 mb 29.67 in1004.7 mb -
Precipitation - 0.09 in2.3 mm - -
Hour Temp Dew Point Humidity Winds Wind Gusts Pressure Precip Precip Rate Daily Precip Total
06:20 AM 75.2°F24.0°C 74.0°F23.3°C 96% 1.2 mph SSW1.9 kmh SSW 2.3 mph3.7 kmh 29.73 in1006.8 mb - 0.09 in2.3 mm 0.09 in2.3 mm
06:15 AM 75.5°F24.2°C 74.3°F23.5°C 96% 1.2 mph S1.9 kmh S 2.3 mph3.7 kmh 29.75 in1007.5 mb - 0.09 in2.3 mm 0.09 in2.3 mm
06:10 AM 75.6°F24.2°C 74.3°F23.5°C 96% 1.2 mph SSE1.9 kmh SSE 3.5 mph5.6 kmh 29.73 in1006.8 mb - 0.09 in2.3 mm 0.09 in2.3 mm
06:00 AM 75.6°F24.2°C 74.3°F23.5°C 96% 2.3 mph SE3.7 kmh SE 3.5 mph5.6 kmh 29.73 in1006.8 mb - 0.08 in2.0 mm 0.08 in2.0 mm
05:55 AM 76.3°F24.6°C 75.1°F23.9°C 96% 6.9 mph S11.1 kmh S 11.5 mph18.5 kmh 29.75 in1007.5 mb - 0.07 in1.8 mm 0.07 in1.8 mm
05:50 AM 76.2°F24.6°C 75.0°F23.9°C 96% 3.5 mph S5.6 kmh S 9.2 mph14.8 kmh 29.75 in1007.5 mb - 0.01 in0.3 mm 0.01 in0.3 mm
05:45 AM 75.9°F24.4°C 74.7°F23.7°C 96% 2.3 mph E3.7 kmh E 3.5 mph5.6 kmh 29.75 in1007.5 mb - 0.00 in0.0 mm 0.00 in0.0 mm
05:40 AM 75.6°F24.2°C 74.3°F23.5°C 96% 1.2 mph SSW1.9 kmh SSW 2.3 mph3.7 kmh 29.75 in1007.5 mb - 0.00 in0.0 mm 0.00 in0.0 mm
05:35 AM 75.6°F24.2°C 74.3°F23.5°C 96% Calm Calm 2.3 mph3.7 kmh 29.73 in1006.8 mb - 0.00 in0.0 mm 0.00 in0.0 mm
05:30 AM 75.4°F24.1°C 74.2°F23.4°C 96% 1.2 mph SW1.9 kmh SW 2.3 mph3.7 kmh 29.73 in1006.8 mb - 0.00 in0.0 mm 0.00 in0.0 mm
05:25 AM 75.4°F24.1°C 74.2°F23.4°C 96% Calm Calm -- 29.73 in1006.8 mb - 0.00 in0.0 mm 0.00 in0.0 mm
05:20 AM 75.4°F24.1°C 73.8°F23.2°C 95% Calm Calm -- 29.73 in1006.8 mb - 0.00 in0.0 mm 0.00 in0.0 mm
05:15 AM 75.6°F24.2°C 74.0°F23.3°C 95% Calm Calm -- 29.73 in1006.8 mb - 0.00 in0.0 mm 0.00 in0.0 mm
05:10 AM 75.6°F24.2°C 74.0°F23.3°C 95% Calm Calm -- 29.72 in1006.4 mb - 0.00 in0.0 mm 0.00 in0.0 mm
05:00 AM 75.6°F24.2°C 73.4°F23.0°C 93% 1.2 mph SE1.9 kmh SE 2.3 mph3.7 kmh 29.72 in1006.4 mb - 0.00 in0.0 mm 0.00 in0.0 mm
04:55 AM 75.6°F24.2°C 73.4°F23.0°C 93% 1.2 mph ESE1.9 kmh ESE 2.3 mph3.7 kmh 29.73 in1006.8 mb - 0.00 in0.0 mm 0.00 in0.0 mm
04:50 AM 75.6°F24.2°C 73.4°F23.0°C 93% 1.2 mph SSE1.9 kmh SSE 2.3 mph3.7 kmh 29.73 in1006.8 mb - 0.00 in0.0 mm 0.00 in0.0 mm
04:45 AM 75.6°F24.2°C 73.4°F23.0°C 93% 1.2 mph S1.9 kmh S 1.2 mph1.9 kmh 29.73 in1006.8 mb - 0.00 in0.0 mm 0.00 in0.0 mm
04:40 AM 75.6°F24.2°C 73.4°F23.0°C 93% 1.2 mph SE1.9 kmh SE 2.3 mph3.7 kmh 29.73 in1006.8 mb - 0.00 in0.0 mm 0.00 in0.0 mm
04:35 AM 75.6°F24.2°C 73.4°F23.0°C 93% 1.2 mph SSE1.9 kmh SSE 2.3 mph3.7 kmh 29.72 in1006.4 mb - 0.00 in0.0 mm 0.00 in0.0 mm
04:30 AM 75.6°F24.2°C 73.4°F23.0°C 93% 1.2 mph E1.9 kmh E 2.3 mph3.7 kmh 29.71 in1006.1 mb - 0.00 in0.0 mm 0.00 in0.0 mm
04:25 AM 75.9°F24.4°C 73.7°F23.2°C 93% 1.2 mph SE1.9 kmh SE 3.5 mph5.6 kmh 29.70 in1005.8 mb - 0.00 in0.0 mm 0.00 in0.0 mm
04:20 AM 76.3°F24.6°C 74.1°F23.4°C 93% 2.3 mph E3.7 kmh E 1.2 mph1.9 kmh 29.70 in1005.8 mb - 0.00 in0.0 mm 0.00 in0.0 mm
04:15 AM 76.5°F24.7°C 74.4°F23.6°C 93% 2.3 mph ENE3.7 kmh ENE 2.3 mph3.7 kmh 29.70 in1005.8 mb - 0.00 in0.0 mm 0.00 in0.0 mm
04:10 AM 77.2°F25.1°C 75.6°F24.2°C 95% Calm Calm 3.5 mph5.6 kmh 29.70 in1005.8 mb - 0.00 in0.0 mm 0.00 in0.0 mm
04:00 AM 77.2°F25.1°C 75.0°F23.9°C 93% Calm Calm -- 29.70 in1005.8 mb - 0.00 in0.0 mm 0.00 in0.0 mm
03:55 AM 77.2°F25.1°C 75.0°F23.9°C 93% Calm Calm -- 29.70 in1005.8 mb - 0.00 in0.0 mm 0.00 in0.0 mm
03:50 AM 77.2°F25.1°C 75.0°F23.9°C 93% Calm Calm -- 29.70 in1005.8 mb - 0.00 in0.0 mm 0.00 in0.0 mm
03:45 AM 77.2°F25.1°C 75.0°F23.9°C 93% 3.5 mph NNE5.6 kmh NNE 2.3 mph3.7 kmh 29.70 in1005.8 mb - 0.00 in0.0 mm 0.00 in0.0 mm
03:40 AM 77.3°F25.2°C 75.4°F24.1°C 94% 4.6 mph N7.4 kmh N 9.2 mph14.8 kmh 29.71 in1006.1 mb - 0.00 in0.0 mm 0.00 in0.0 mm
03:35 AM 77.4°F25.2°C 76.1°F24.5°C 96% 3.5 mph WSW5.6 kmh WSW 5.8 mph9.3 kmh 29.70 in1005.8 mb - 0.00 in0.0 mm 0.00 in0.0 mm
03:30 AM 77.4°F25.2°C 75.8°F24.3°C 95% 1.2 mph SSW1.9 kmh SSW 3.5 mph5.6 kmh 29.68 in1005.1 mb - 0.00 in0.0 mm 0.00 in0.0 mm
03:25 AM 77.4°F25.2°C 75.8°F24.3°C 95% 1.2 mph SE1.9 kmh SE 2.3 mph3.7 kmh 29.70 in1005.8 mb - 0.00 in0.0 mm 0.00 in0.0 mm
03:20 AM 77.4°F25.2°C 75.8°F24.3°C 95% Calm Calm -- 29.70 in1005.8 mb - 0.00 in0.0 mm 0.00 in0.0 mm
03:15 AM 77.4°F25.2°C 75.8°F24.3°C 95% Calm Calm -- 29.70 in1005.8 mb - 0.00 in0.0 mm 0.00 in0.0 mm
03:10 AM 77.4°F25.2°C 75.8°F24.3°C 95% Calm Calm -- 29.70 in1005.8 mb - 0.00 in0.0 mm 0.00 in0.0 mm
03:00 AM 77.4°F25.2°C 75.8°F24.3°C 95% Calm Calm -- 29.70 in1005.8 mb - 0.00 in0.0 mm 0.00 in0.0 mm
02:55 AM 77.4°F25.2°C 75.8°F24.3°C 95% Calm Calm -- 29.69 in1005.4 mb - 0.00 in0.0 mm 0.00 in0.0 mm
02:50 AM 77.5°F25.3°C 76.0°F24.4°C 95% Calm Calm -- 29.67 in1004.7 mb - 0.00 in0.0 mm 0.00 in0.0 mm
02:45 AM 77.5°F25.3°C 76.0°F24.4°C 95% Calm Calm -- 29.67 in1004.7 mb - 0.00 in0.0 mm 0.00 in0.0 mm
02:40 AM 77.5°F25.3°C 75.4°F24.1°C 93% Calm Calm 1.2 mph1.9 kmh 29.68 in1005.1 mb - 0.00 in0.0 mm 0.00 in0.0 mm
02:35 AM 77.5°F25.3°C 75.4°F24.1°C 93% Calm Calm -- 29.68 in1005.1 mb - 0.00 in0.0 mm 0.00 in0.0 mm
02:30 AM 77.7°F25.4°C 75.5°F24.2°C 93% Calm Calm -- 29.69 in1005.4 mb - 0.00 in0.0 mm 0.00 in0.0 mm
02:25 AM 78.1°F25.6°C 75.9°F24.4°C 93% Calm Calm -- 29.70 in1005.8 mb - 0.00 in0.0 mm 0.00 in0.0 mm
02:20 AM 78.3°F25.7°C 76.1°F24.5°C 93% Calm Calm -- 29.68 in1005.1 mb - 0.00 in0.0 mm 0.00 in0.0 mm
02:15 AM 78.3°F25.7°C 76.1°F24.5°C 93% Calm Calm -- 29.70 in1005.8 mb - 0.00 in0.0 mm 0.00 in0.0 mm
02:10 AM 78.3°F25.7°C 76.1°F24.5°C 93% Calm Calm 1.2 mph1.9 kmh 29.69 in1005.4 mb - 0.00 in0.0 mm 0.00 in0.0 mm
02:00 AM 78.3°F25.7°C 76.1°F24.5°C 93% Calm Calm -- 29.68 in1005.1 mb - 0.00 in0.0 mm 0.00 in0.0 mm
01:55 AM 78.4°F25.8°C 76.2°F24.6°C 93% 1.2 mph ENE1.9 kmh ENE 1.2 mph1.9 kmh 29.68 in1005.1 mb - 0.00 in0.0 mm 0.00 in0.0 mm
01:50 AM 78.4°F25.8°C 75.6°F24.2°C 91% 1.2 mph E1.9 kmh E 3.5 mph5.6 kmh 29.69 in1005.4 mb - 0.00 in0.0 mm 0.00 in0.0 mm
01:45 AM 78.4°F25.8°C 75.6°F24.2°C 91% 1.2 mph SE1.9 kmh SE 1.2 mph1.9 kmh 29.69 in1005.4 mb - 0.00 in0.0 mm 0.00 in0.0 mm
01:40 AM 78.4°F25.8°C 75.6°F24.2°C 91% 1.2 mph S1.9 kmh S 1.2 mph1.9 kmh 29.70 in1005.8 mb - 0.00 in0.0 mm 0.00 in0.0 mm
01:35 AM 78.3°F25.7°C 75.5°F24.2°C 91% 1.2 mph SSE1.9 kmh SSE 2.3 mph3.7 kmh 29.71 in1006.1 mb - 0.00 in0.0 mm 0.00 in0.0 mm
01:30 AM 78.3°F25.7°C 75.4°F24.1°C 91% 1.2 mph S1.9 kmh S 2.3 mph3.7 kmh 29.70 in1005.8 mb - 0.00 in0.0 mm 0.00 in0.0 mm
01:25 AM 78.3°F25.7°C 75.4°F24.1°C 91% Calm Calm -- 29.71 in1006.1 mb - 0.00 in0.0 mm 0.00 in0.0 mm
01:20 AM 78.3°F25.7°C 75.4°F24.1°C 91% 1.2 mph SSE1.9 kmh SSE 3.5 mph5.6 kmh 29.71 in1006.1 mb - 0.00 in0.0 mm 0.00 in0.0 mm
01:15 AM 78.1°F25.6°C 75.2°F24.0°C 91% 1.2 mph S1.9 kmh S 1.2 mph1.9 kmh 29.71 in1006.1 mb - 0.00 in0.0 mm 0.00 in0.0 mm
01:10 AM 78.1°F25.6°C 75.2°F24.0°C 91% 1.2 mph S1.9 kmh S 1.2 mph1.9 kmh 29.71 in1006.1 mb - 0.00 in0.0 mm 0.00 in0.0 mm
01:00 AM 77.7°F25.4°C 74.9°F23.8°C 91% 1.2 mph S1.9 kmh S 2.3 mph3.7 kmh 29.71 in1006.1 mb - 0.00 in0.0 mm 0.00 in0.0 mm
12:55 AM 77.7°F25.4°C 74.9°F23.8°C 91% 1.2 mph S1.9 kmh S 2.3 mph3.7 kmh 29.70 in1005.8 mb - 0.00 in0.0 mm 0.00 in0.0 mm
12:50 AM 77.5°F25.3°C 74.7°F23.7°C 91% 1.2 mph S1.9 kmh S 2.3 mph3.7 kmh 29.71 in1006.1 mb - 0.00 in0.0 mm 0.00 in0.0 mm
12:45 AM 77.5°F25.3°C 74.7°F23.7°C 91% 2.3 mph SW3.7 kmh SW 3.5 mph5.6 kmh 29.73 in1006.8 mb - 0.00 in0.0 mm 0.00 in0.0 mm
12:40 AM 77.5°F25.3°C 74.7°F23.7°C 91% 2.3 mph SSW3.7 kmh SSW 3.5 mph5.6 kmh 29.73 in1006.8 mb - 0.00 in0.0 mm 0.00 in0.0 mm
12:35 AM 77.5°F25.3°C 74.7°F23.7°C 91% 2.3 mph S3.7 kmh S 3.5 mph5.6 kmh 29.73 in1006.8 mb - 0.00 in0.0 mm 0.00 in0.0 mm
12:30 AM 77.5°F25.3°C 74.7°F23.7°C 91% 2.3 mph SW3.7 kmh SW 3.5 mph5.6 kmh 29.73 in1006.8 mb - 0.00 in0.0 mm 0.00 in0.0 mm
12:25 AM 77.5°F25.3°C 74.7°F23.7°C 91% 2.3 mph SSW3.7 kmh SSW 3.5 mph5.6 kmh 29.73 in1006.8 mb - 0.00 in0.0 mm 0.00 in0.0 mm
12:20 AM 77.4°F25.2°C 74.5°F23.6°C 91% 1.2 mph SSW1.9 kmh SSW 3.5 mph5.6 kmh 29.73 in1006.8 mb - 0.00 in0.0 mm 0.00 in0.0 mm
12:15 AM 77.4°F25.2°C 74.5°F23.6°C 91% 2.3 mph SSW3.7 kmh SSW 3.5 mph5.6 kmh 29.73 in1006.8 mb - 0.00 in0.0 mm 0.00 in0.0 mm
12:10 AM 77.4°F25.2°C 74.5°F23.6°C 91% 2.3 mph S3.7 kmh S 2.3 mph3.7 kmh 29.73 in1006.8 mb - 0.00 in0.0 mm 0.00 in0.0 mm
12:00 AM 77.4°F25.2°C 74.5°F23.6°C 91% 2.3 mph S3.7 kmh S 2.3 mph3.7 kmh 29.73 in1006.8 mb - 0.00 in0.0 mm 0.00 in0.0 mm